sensor_id;sensor_type;location;lat;lon;timestamp;pressure;altitude;pressure_sealevel;temperature;humidity
59487;BME280;45298;54.918;73.504;2023-01-30T00:02:02;100868.91;;;-15.44;82.70
59487;BME280;45298;54.918;73.504;2023-01-30T00:04:32;100867.50;;;-15.54;82.03
59487;BME280;45298;54.918;73.504;2023-01-30T00:07:00;100881.72;;;-15.42;82.58
59487;BME280;45298;54.918;73.504;2023-01-30T00:09:29;100872.78;;;-15.51;82.47
59487;BME280;45298;54.918;73.504;2023-01-30T00:11:58;100868.41;;;-15.53;82.62
59487;BME280;45298;54.918;73.504;2023-01-30T00:14:26;100885.31;;;-15.54;83.03
59487;BME280;45298;54.918;73.504;2023-01-30T00:16:55;100910.50;;;-15.43;81.77
59487;BME280;45298;54.918;73.504;2023-01-30T00:19:23;100897.84;;;-15.57;82.26
59487;BME280;45298;54.918;73.504;2023-01-30T00:21:52;100860.88;;;-15.82;83.04
59487;BME280;45298;54.918;73.504;2023-01-30T00:24:20;100849.31;;;-15.91;82.55
59487;BME280;45298;54.918;73.504;2023-01-30T00:26:49;100851.09;;;-15.90;82.00
59487;BME280;45298;54.918;73.504;2023-01-30T00:29:17;100883.66;;;-15.68;82.69
59487;BME280;45298;54.918;73.504;2023-01-30T00:31:46;100862.91;;;-15.91;82.56
59487;BME280;45298;54.918;73.504;2023-01-30T00:34:16;100873.84;;;-15.92;81.96
59487;BME280;45298;54.918;73.504;2023-01-30T00:36:44;100847.47;;;-16.09;82.40
59487;BME280;45298;54.918;73.504;2023-01-30T00:39:25;100909.81;;;-15.86;82.54
59487;BME280;45298;54.918;73.504;2023-01-30T00:41:54;100913.66;;;-15.92;82.65
59487;BME280;45298;54.918;73.504;2023-01-30T00:44:41;100888.72;;;-16.13;82.45
59487;BME280;45298;54.918;73.504;2023-01-30T00:47:28;100876.97;;;-16.26;81.49
59487;BME280;45298;54.918;73.504;2023-01-30T00:49:57;100885.44;;;-16.26;82.64
59487;BME280;45298;54.918;73.504;2023-01-30T00:52:26;100917.00;;;-16.22;81.61
59487;BME280;45298;54.918;73.504;2023-01-30T00:54:54;100901.47;;;-16.27;81.60
59487;BME280;45298;54.918;73.504;2023-01-30T00:57:23;100901.38;;;-16.28;81.67
59487;BME280;45298;54.918;73.504;2023-01-30T00:59:51;100891.47;;;-16.38;81.96
59487;BME280;45298;54.918;73.504;2023-01-30T01:02:20;100877.81;;;-16.54;82.72
59487;BME280;45298;54.918;73.504;2023-01-30T01:04:49;100908.63;;;-16.34;81.88
59487;BME280;45298;54.918;73.504;2023-01-30T01:07:17;100907.31;;;-16.43;82.42
59487;BME280;45298;54.918;73.504;2023-01-30T01:09:48;100910.34;;;-16.48;82.19
59487;BME280;45298;54.918;73.504;2023-01-30T01:12:18;100898.75;;;-16.58;81.28
59487;BME280;45298;54.918;73.504;2023-01-30T01:14:46;100825.88;;;-17.03;81.49
59487;BME280;45298;54.918;73.504;2023-01-30T01:17:15;100875.13;;;-16.71;81.38
59487;BME280;45298;54.918;73.504;2023-01-30T01:19:43;100919.63;;;-16.49;82.11
59487;BME280;45298;54.918;73.504;2023-01-30T01:22:12;100874.28;;;-16.71;82.01
59487;BME280;45298;54.918;73.504;2023-01-30T01:24:41;100907.50;;;-16.53;82.46
59487;BME280;45298;54.918;73.504;2023-01-30T01:27:09;100877.78;;;-16.69;82.41
59487;BME280;45298;54.918;73.504;2023-01-30T01:29:38;100888.22;;;-16.64;82.01
59487;BME280;45298;54.918;73.504;2023-01-30T01:32:06;100906.72;;;-16.52;82.49
59487;BME280;45298;54.918;73.504;2023-01-30T01:34:35;100829.19;;;-17.04;81.28
59487;BME280;45298;54.918;73.504;2023-01-30T01:37:04;100915.63;;;-16.59;81.13
59487;BME280;45298;54.918;73.504;2023-01-30T01:39:35;100812.06;;;-17.21;81.11
59487;BME280;45298;54.918;73.504;2023-01-30T01:42:24;100939.38;;;-16.58;81.32
59487;BME280;45298;54.918;73.504;2023-01-30T01:45:10;100953.84;;;-16.57;81.79
59487;BME280;45298;54.918;73.504;2023-01-30T01:48:07;100948.38;;;-16.63;81.33
59487;BME280;45298;54.918;73.504;2023-01-30T01:50:41;100912.88;;;-16.77;80.93
59487;BME280;45298;54.918;73.504;2023-01-30T01:53:12;100938.22;;;-16.63;80.68
59487;BME280;45298;54.918;73.504;2023-01-30T01:55:46;100899.03;;;-16.95;81.48
59487;BME280;45298;54.918;73.504;2023-01-30T01:59:07;100914.53;;;-16.91;81.00
59487;BME280;45298;54.918;73.504;2023-01-30T02:01:17;100929.06;;;-16.88;81.22
59487;BME280;45298;54.918;73.504;2023-01-30T02:03:53;100957.16;;;-16.72;81.76
59487;BME280;45298;54.918;73.504;2023-01-30T02:06:27;100907.44;;;-16.96;82.07
59487;BME280;45298;54.918;73.504;2023-01-30T02:09:03;100877.78;;;-17.24;80.91
59487;BME280;45298;54.918;73.504;2023-01-30T02:14:04;100901.81;;;-17.19;81.45
59487;BME280;45298;54.918;73.504;2023-01-30T02:16:35;100891.63;;;-17.33;80.60
59487;BME280;45298;54.918;73.504;2023-01-30T02:19:23;100952.03;;;-17.13;81.20
59487;BME280;45298;54.918;73.504;2023-01-30T02:25:22;100966.41;;;-17.00;80.92
59487;BME280;45298;54.918;73.504;2023-01-30T02:31:00;100969.44;;;-17.06;81.11
59487;BME280;45298;54.918;73.504;2023-01-30T02:42:54;100993.13;;;-17.19;80.41
59487;BME280;45298;54.918;73.504;2023-01-30T02:45:50;100970.06;;;-17.36;81.16
59487;BME280;45298;54.918;73.504;2023-01-30T02:48:33;100990.94;;;-17.26;81.34
59487;BME280;45298;54.918;73.504;2023-01-30T02:51:15;100998.47;;;-17.28;81.31
59487;BME280;45298;54.918;73.504;2023-01-30T02:53:46;100941.13;;;-17.65;81.52
59487;BME280;45298;54.918;73.504;2023-01-30T02:56:17;100983.13;;;-17.43;81.57
59487;BME280;45298;54.918;73.504;2023-01-30T02:58:54;101005.56;;;-17.36;81.45
59487;BME280;45298;54.918;73.504;2023-01-30T03:02:01;100882.59;;;-18.08;80.85
59487;BME280;45298;54.918;73.504;2023-01-30T03:04:45;101007.31;;;-17.35;81.11
59487;BME280;45298;54.918;73.504;2023-01-30T03:10:05;100991.28;;;-17.47;81.54
59487;BME280;45298;54.918;73.504;2023-01-30T03:18:09;101000.88;;;-17.43;80.62
59487;BME280;45298;54.918;73.504;2023-01-30T03:20:39;100985.81;;;-17.53;80.79
59487;BME280;45298;54.918;73.504;2023-01-30T03:23:08;101010.88;;;-17.44;80.66
59487;BME280;45298;54.918;73.504;2023-01-30T03:25:42;100960.84;;;-17.60;80.38
59487;BME280;45298;54.918;73.504;2023-01-30T03:28:13;101014.34;;;-17.30;81.32
59487;BME280;45298;54.918;73.504;2023-01-30T03:30:48;101039.13;;;-17.26;80.34
59487;BME280;45298;54.918;73.504;2023-01-30T03:33:16;101020.59;;;-17.25;80.92
59487;BME280;45298;54.918;73.504;2023-01-30T03:35:49;101009.34;;;-17.42;80.83
59487;BME280;45298;54.918;73.504;2023-01-30T03:38:18;101002.44;;;-17.32;80.76
59487;BME280;45298;54.918;73.504;2023-01-30T03:40:53;101013.56;;;-17.29;80.32
59487;BME280;45298;54.918;73.504;2023-01-30T03:43:21;100992.63;;;-17.27;81.49
59487;BME280;45298;54.918;73.504;2023-01-30T03:45:50;100991.16;;;-17.23;80.64
59487;BME280;45298;54.918;73.504;2023-01-30T03:48:19;100995.53;;;-17.21;80.67
59487;BME280;45298;54.918;73.504;2023-01-30T03:50:48;100993.91;;;-17.20;80.35
59487;BME280;45298;54.918;73.504;2023-01-30T03:53:16;100921.28;;;-17.58;80.90
59487;BME280;45298;54.918;73.504;2023-01-30T03:55:45;101041.31;;;-16.92;80.50
59487;BME280;45298;54.918;73.504;2023-01-30T03:58:16;101036.53;;;-16.88;80.56
59487;BME280;45298;54.918;73.504;2023-01-30T04:00:45;101014.16;;;-16.93;79.80
59487;BME280;45298;54.918;73.504;2023-01-30T04:03:14;101003.56;;;-17.01;80.18
59487;BME280;45298;54.918;73.504;2023-01-30T04:05:43;101035.16;;;-16.82;80.75
59487;BME280;45298;54.918;73.504;2023-01-30T04:08:12;101020.91;;;-16.94;79.80
59487;BME280;45298;54.918;73.504;2023-01-30T04:10:40;100912.13;;;-17.43;79.64
59487;BME280;45298;54.918;73.504;2023-01-30T04:13:10;100991.84;;;-16.99;79.79
59487;BME280;45298;54.918;73.504;2023-01-30T04:15:39;100942.69;;;-17.28;80.41
59487;BME280;45298;54.918;73.504;2023-01-30T04:18:37;100972.03;;;-17.05;80.25
59487;BME280;45298;54.918;73.504;2023-01-30T04:21:12;101014.41;;;-16.77;79.85
59487;BME280;45298;54.918;73.504;2023-01-30T04:23:42;101029.13;;;-16.71;79.65
59487;BME280;45298;54.918;73.504;2023-01-30T04:26:11;100901.97;;;-17.43;80.00
59487;BME280;45298;54.918;73.504;2023-01-30T04:28:41;101030.88;;;-16.70;79.68
59487;BME280;45298;54.918;73.504;2023-01-30T04:31:12;100946.06;;;-17.14;80.48
59487;BME280;45298;54.918;73.504;2023-01-30T04:33:56;101029.19;;;-16.56;79.47
59487;BME280;45298;54.918;73.504;2023-01-30T04:36:25;101019.03;;;-16.56;79.21
59487;BME280;45298;54.918;73.504;2023-01-30T04:38:56;100972.88;;;-16.77;79.92
59487;BME280;45298;54.918;73.504;2023-01-30T04:41:28;100997.94;;;-16.55;79.94
59487;BME280;45298;54.918;73.504;2023-01-30T04:43:59;101010.16;;;-16.36;79.84
59487;BME280;45298;54.918;73.504;2023-01-30T04:46:37;101025.81;;;-16.15;79.92
59487;BME280;45298;54.918;73.504;2023-01-30T04:49:07;101007.25;;;-16.14;79.35
59487;BME280;45298;54.918;73.504;2023-01-30T04:51:36;101030.38;;;-15.96;79.86
59487;BME280;45298;54.918;73.504;2023-01-30T04:54:05;101032.16;;;-15.80;80.11
59487;BME280;45298;54.918;73.504;2023-01-30T04:56:34;101043.25;;;-15.64;80.08
59487;BME280;45298;54.918;73.504;2023-01-30T04:59:04;101050.63;;;-15.54;79.54
59487;BME280;45298;54.918;73.504;2023-01-30T05:01:38;101026.06;;;-15.68;79.20
59487;BME280;45298;54.918;73.504;2023-01-30T05:04:07;101014.97;;;-15.69;78.87
59487;BME280;45298;54.918;73.504;2023-01-30T05:06:36;101070.69;;;-15.30;79.26
59487;BME280;45298;54.918;73.504;2023-01-30T05:09:05;101045.84;;;-15.34;79.15
59487;BME280;45298;54.918;73.504;2023-01-30T05:11:34;101067.91;;;-15.05;79.31
59487;BME280;45298;54.918;73.504;2023-01-30T05:14:03;101019.88;;;-15.13;78.50
59487;BME280;45298;54.918;73.504;2023-01-30T05:16:32;100973.28;;;-15.27;78.12
59487;BME280;45298;54.918;73.504;2023-01-30T05:19:00;101048.75;;;-14.68;78.26
59487;BME280;45298;54.918;73.504;2023-01-30T05:21:29;101054.50;;;-14.55;77.38
59487;BME280;45298;54.918;73.504;2023-01-30T05:23:58;101035.97;;;-14.53;77.47
59487;BME280;45298;54.918;73.504;2023-01-30T05:26:26;100987.63;;;-14.68;77.08
59487;BME280;45298;54.918;73.504;2023-01-30T05:28:56;101076.03;;;-14.04;77.09
59487;BME280;45298;54.918;73.504;2023-01-30T05:31:25;101033.13;;;-14.11;76.88
59487;BME280;45298;54.918;73.504;2023-01-30T05:33:54;101058.19;;;-13.87;76.92
59487;BME280;45298;54.918;73.504;2023-01-30T05:36:23;100989.94;;;-14.24;76.64
59487;BME280;45298;54.918;73.504;2023-01-30T05:38:52;101058.81;;;-13.75;76.30
59487;BME280;45298;54.918;73.504;2023-01-30T05:41:21;101040.81;;;-13.78;76.50
59487;BME280;45298;54.918;73.504;2023-01-30T05:43:50;101038.91;;;-13.65;76.15
59487;BME280;45298;54.918;73.504;2023-01-30T05:46:19;101064.91;;;-13.56;75.68
59487;BME280;45298;54.918;73.504;2023-01-30T05:48:47;101059.78;;;-13.56;76.00
59487;BME280;45298;54.918;73.504;2023-01-30T05:51:19;101052.38;;;-13.52;75.61
59487;BME280;45298;54.918;73.504;2023-01-30T05:53:48;101081.78;;;-13.25;76.47
59487;BME280;45298;54.918;73.504;2023-01-30T05:56:18;101048.75;;;-13.39;76.10
59487;BME280;45298;54.918;73.504;2023-01-30T05:58:52;101046.28;;;-13.37;75.80
59487;BME280;45298;54.918;73.504;2023-01-30T06:01:22;101076.66;;;-13.09;75.74
59487;BME280;45298;54.918;73.504;2023-01-30T06:03:51;101082.69;;;-12.90;75.50
59487;BME280;45298;54.918;73.504;2023-01-30T06:06:21;101055.44;;;-12.89;74.82
59487;BME280;45298;54.918;73.504;2023-01-30T06:08:54;101076.72;;;-12.54;75.86
59487;BME280;45298;54.918;73.504;2023-01-30T06:11:24;101063.94;;;-12.54;75.05
59487;BME280;45298;54.918;73.504;2023-01-30T06:13:53;101049.66;;;-12.51;75.08
59487;BME280;45298;54.918;73.504;2023-01-30T06:16:21;101036.06;;;-12.50;74.63
59487;BME280;45298;54.918;73.504;2023-01-30T06:18:50;101087.34;;;-12.10;75.05
59487;BME280;45298;54.918;73.504;2023-01-30T06:21:19;101021.22;;;-12.39;75.36
59487;BME280;45298;54.918;73.504;2023-01-30T06:23:48;101059.84;;;-12.15;74.89
59487;BME280;45298;54.918;73.504;2023-01-30T06:26:17;100968.22;;;-12.61;74.73
59487;BME280;45298;54.918;73.504;2023-01-30T06:28:45;101066.41;;;-12.02;74.55
59487;BME280;45298;54.918;73.504;2023-01-30T06:31:15;101036.84;;;-12.15;75.00
59487;BME280;45298;54.918;73.504;2023-01-30T06:33:45;101058.78;;;-12.00;74.65
59487;BME280;45298;54.918;73.504;2023-01-30T06:36:16;101096.53;;;-11.76;74.49
59487;BME280;45298;54.918;73.504;2023-01-30T06:38:45;101065.31;;;-11.87;73.93
59487;BME280;45298;54.918;73.504;2023-01-30T06:41:13;101032.41;;;-11.99;75.14
59487;BME280;45298;54.918;73.504;2023-01-30T06:43:42;101086.31;;;-11.57;74.23
59487;BME280;45298;54.918;73.504;2023-01-30T06:46:11;101038.31;;;-11.80;74.92
59487;BME280;45298;54.918;73.504;2023-01-30T06:48:40;101059.47;;;-11.45;75.20
59487;BME280;45298;54.918;73.504;2023-01-30T06:51:08;101060.75;;;-11.35;75.02
59487;BME280;45298;54.918;73.504;2023-01-30T06:53:40;101070.41;;;-11.30;74.63
59487;BME280;45298;54.918;73.504;2023-01-30T06:56:09;101044.13;;;-11.45;74.07
59487;BME280;45298;54.918;73.504;2023-01-30T06:58:37;101066.34;;;-11.25;74.26
59487;BME280;45298;54.918;73.504;2023-01-30T07:01:06;101058.88;;;-11.20;73.88
59487;BME280;45298;54.918;73.504;2023-01-30T07:03:35;101020.69;;;-11.35;73.17
59487;BME280;45298;54.918;73.504;2023-01-30T07:06:04;101036.19;;;-11.11;73.47
59487;BME280;45298;54.918;73.504;2023-01-30T07:08:34;101042.41;;;-10.84;74.60
59487;BME280;45298;54.918;73.504;2023-01-30T07:11:04;101021.09;;;-10.83;73.30
59487;BME280;45298;54.918;73.504;2023-01-30T07:13:32;101050.97;;;-10.63;73.27
59487;BME280;45298;54.918;73.504;2023-01-30T07:16:01;101048.50;;;-10.61;72.94
59487;BME280;45298;54.918;73.504;2023-01-30T07:18:29;101071.38;;;-10.44;72.84
59487;BME280;45298;54.918;73.504;2023-01-30T07:20:58;101040.09;;;-10.57;72.92
59487;BME280;45298;54.918;73.504;2023-01-30T07:23:27;101087.88;;;-10.15;73.60
59487;BME280;45298;54.918;73.504;2023-01-30T07:25:55;101067.81;;;-10.03;72.08
59487;BME280;45298;54.918;73.504;2023-01-30T07:28:24;101098.50;;;-9.83;71.63
59487;BME280;45298;54.918;73.504;2023-01-30T07:30:52;101079.13;;;-9.97;71.37
59487;BME280;45298;54.918;73.504;2023-01-30T07:33:21;101007.63;;;-10.34;71.80
59487;BME280;45298;54.918;73.504;2023-01-30T07:35:52;101071.78;;;-10.11;71.04
59487;BME280;45298;54.918;73.504;2023-01-30T07:38:21;101061.03;;;-10.23;72.00
59487;BME280;45298;54.918;73.504;2023-01-30T07:40:49;101066.41;;;-10.17;71.49
59487;BME280;45298;54.918;73.504;2023-01-30T07:43:18;101035.72;;;-10.37;71.61
59487;BME280;45298;54.918;73.504;2023-01-30T07:45:47;101065.22;;;-10.25;72.01
59487;BME280;45298;54.918;73.504;2023-01-30T07:48:18;101076.66;;;-10.17;71.31
59487;BME280;45298;54.918;73.504;2023-01-30T07:50:46;101054.34;;;-10.42;71.08
59487;BME280;45298;54.918;73.504;2023-01-30T07:53:16;101081.44;;;-10.26;71.83
59487;BME280;45298;54.918;73.504;2023-01-30T07:55:45;101072.88;;;-10.27;71.44
59487;BME280;45298;54.918;73.504;2023-01-30T07:58:15;100992.47;;;-10.73;72.05
59487;BME280;45298;54.918;73.504;2023-01-30T08:00:44;101059.28;;;-10.24;71.23
59487;BME280;45298;54.918;73.504;2023-01-30T08:03:14;101044.22;;;-10.38;71.86
59487;BME280;45298;54.918;73.504;2023-01-30T08:05:45;101083.44;;;-10.19;71.43
59487;BME280;45298;54.918;73.504;2023-01-30T08:08:14;101066.56;;;-10.35;71.52
59487;BME280;45298;54.918;73.504;2023-01-30T08:10:43;101047.06;;;-10.32;72.25
59487;BME280;45298;54.918;73.504;2023-01-30T08:13:11;101059.53;;;-10.18;71.81
59487;BME280;45298;54.918;73.504;2023-01-30T08:15:40;101080.06;;;-10.18;72.04
59487;BME280;45298;54.918;73.504;2023-01-30T08:18:09;101051.50;;;-10.50;71.29
59487;BME280;45298;54.918;73.504;2023-01-30T08:20:37;101038.22;;;-10.61;71.84
59487;BME280;45298;54.918;73.504;2023-01-30T08:23:06;101041.84;;;-10.56;72.95
59487;BME280;45298;54.918;73.504;2023-01-30T08:25:35;101045.59;;;-10.48;72.01
59487;BME280;45298;54.918;73.504;2023-01-30T08:28:03;101059.28;;;-10.24;72.48
59487;BME280;45298;54.918;73.504;2023-01-30T08:30:32;101036.06;;;-10.27;72.74
59487;BME280;45298;54.918;73.504;2023-01-30T08:33:01;101032.00;;;-10.22;71.78
59487;BME280;45298;54.918;73.504;2023-01-30T08:35:30;101049.44;;;-10.13;71.67
59487;BME280;45298;54.918;73.504;2023-01-30T08:37:58;100953.41;;;-10.66;72.11
59487;BME280;45298;54.918;73.504;2023-01-30T08:40:27;100922.06;;;-10.81;71.89
59487;BME280;45298;54.918;73.504;2023-01-30T08:42:56;100892.34;;;-10.99;72.55
59487;BME280;45298;54.918;73.504;2023-01-30T08:45:25;101022.56;;;-10.23;72.07
59487;BME280;45298;54.918;73.504;2023-01-30T08:47:57;101039.94;;;-10.16;72.02
59487;BME280;45298;54.918;73.504;2023-01-30T08:50:26;100956.94;;;-10.64;71.91
59487;BME280;45298;54.918;73.504;2023-01-30T08:52:55;101050.50;;;-10.08;72.07
59487;BME280;45298;54.918;73.504;2023-01-30T08:55:24;101042.63;;;-10.13;71.94
59487;BME280;45298;54.918;73.504;2023-01-30T08:57:55;101026.63;;;-10.28;72.27
59487;BME280;45298;54.918;73.504;2023-01-30T09:00:24;101044.66;;;-10.27;71.95
59487;BME280;45298;54.918;73.504;2023-01-30T09:02:57;101018.53;;;-10.39;72.12
59487;BME280;45298;54.918;73.504;2023-01-30T09:05:25;101020.19;;;-10.41;72.12
59487;BME280;45298;54.918;73.504;2023-01-30T09:07:54;101034.97;;;-10.34;72.62
59487;BME280;45298;54.918;73.504;2023-01-30T09:10:23;101017.44;;;-10.46;72.07
59487;BME280;45298;54.918;73.504;2023-01-30T09:12:52;101049.50;;;-10.35;71.91
59487;BME280;45298;54.918;73.504;2023-01-30T09:15:20;101048.56;;;-10.37;72.23
59487;BME280;45298;54.918;73.504;2023-01-30T09:17:50;101042.72;;;-10.55;72.11
59487;BME280;45298;54.918;73.504;2023-01-30T09:20:19;101011.22;;;-10.74;72.23
59487;BME280;45298;54.918;73.504;2023-01-30T09:22:48;101038.59;;;-10.52;72.30
59487;BME280;45298;54.918;73.504;2023-01-30T09:25:17;101029.66;;;-10.61;72.99
59487;BME280;45298;54.918;73.504;2023-01-30T09:27:49;100999.78;;;-10.82;72.09
59487;BME280;45298;54.918;73.504;2023-01-30T09:30:18;101026.72;;;-10.71;71.60
59487;BME280;45298;54.918;73.504;2023-01-30T09:32:48;100950.38;;;-11.22;72.29
59487;BME280;45298;54.918;73.504;2023-01-30T09:35:16;101015.91;;;-10.85;71.75
59487;BME280;45298;54.918;73.504;2023-01-30T09:37:46;101020.09;;;-10.87;71.93
59487;BME280;45298;54.918;73.504;2023-01-30T09:40:19;101034.00;;;-10.82;72.99
59487;BME280;45298;54.918;73.504;2023-01-30T09:43:03;101064.16;;;-10.74;71.94
59487;BME280;45298;54.918;73.504;2023-01-30T09:46:06;101021.97;;;-11.04;73.13
59487;BME280;45298;54.918;73.504;2023-01-30T09:48:38;101053.72;;;-11.00;71.88
59487;BME280;45298;54.918;73.504;2023-01-30T09:56:30;100974.31;;;-11.82;73.21
59487;BME280;45298;54.918;73.504;2023-01-30T09:59:02;101061.25;;;-11.44;72.65
59487;BME280;45298;54.918;73.504;2023-01-30T10:01:53;101050.31;;;-11.60;72.09
59487;BME280;45298;54.918;73.504;2023-01-30T10:04:32;101042.72;;;-11.58;73.44
59487;BME280;45298;54.918;73.504;2023-01-30T10:07:31;101066.50;;;-11.41;73.67
59487;BME280;45298;54.918;73.504;2023-01-30T10:13:05;101065.03;;;-11.36;73.03
59487;BME280;45298;54.918;73.504;2023-01-30T10:21:51;101066.63;;;-11.18;72.60
59487;BME280;45298;54.918;73.504;2023-01-30T10:24:36;101055.28;;;-11.24;72.76
59487;BME280;45298;54.918;73.504;2023-01-30T10:27:13;101057.31;;;-11.16;72.83
59487;BME280;45298;54.918;73.504;2023-01-30T10:29:54;101023.25;;;-11.35;73.29
59487;BME280;45298;54.918;73.504;2023-01-30T10:32:28;101046.31;;;-11.14;72.02
59487;BME280;45298;54.918;73.504;2023-01-30T10:35:05;101058.25;;;-11.14;72.08
59487;BME280;45298;54.918;73.504;2023-01-30T10:37:44;101039.78;;;-11.27;72.97
59487;BME280;45298;54.918;73.504;2023-01-30T10:41:07;101077.31;;;-11.07;73.33
59487;BME280;45298;54.918;73.504;2023-01-30T10:43:33;100937.13;;;-11.93;73.34
59487;BME280;45298;54.918;73.504;2023-01-30T10:46:32;101060.69;;;-11.17;73.83
59487;BME280;45298;54.918;73.504;2023-01-30T10:52:10;101065.75;;;-11.19;73.07
59487;BME280;45298;54.918;73.504;2023-01-30T10:57:22;101074.97;;;-11.23;73.21
59487;BME280;45298;54.918;73.504;2023-01-30T10:59:59;101026.63;;;-11.56;73.84
59487;BME280;45298;54.918;73.504;2023-01-30T11:05:15;100975.72;;;-11.89;73.28
59487;BME280;45298;54.918;73.504;2023-01-30T11:07:46;101056.25;;;-11.41;73.35
59487;BME280;45298;54.918;73.504;2023-01-30T11:13:08;101054.38;;;-11.45;74.22
59487;BME280;45298;54.918;73.504;2023-01-30T11:15:39;101065.69;;;-11.40;74.70
59487;BME280;45298;54.918;73.504;2023-01-30T11:18:08;101049.06;;;-11.50;73.45
59487;BME280;45298;54.918;73.504;2023-01-30T11:21:07;101057.47;;;-11.52;74.94
59487;BME280;45298;54.918;73.504;2023-01-30T11:23:41;101057.34;;;-11.56;73.64
59487;BME280;45298;54.918;73.504;2023-01-30T11:26:24;101079.28;;;-11.41;74.44
59487;BME280;45298;54.918;73.504;2023-01-30T11:29:31;101083.56;;;-11.42;73.89
59487;BME280;45298;54.918;73.504;2023-01-30T11:32:04;100987.16;;;-12.00;75.18
59487;BME280;45298;54.918;73.504;2023-01-30T11:34:33;101081.53;;;-11.49;75.85
59487;BME280;45298;54.918;73.504;2023-01-30T11:37:31;101046.63;;;-11.66;74.38
59487;BME280;45298;54.918;73.504;2023-01-30T11:40:13;101037.81;;;-11.73;75.89
59487;BME280;45298;54.918;73.504;2023-01-30T11:42:50;101037.53;;;-11.79;74.79
59487;BME280;45298;54.918;73.504;2023-01-30T11:45:24;101058.41;;;-11.70;74.36
59487;BME280;45298;54.918;73.504;2023-01-30T11:47:59;100989.25;;;-12.11;75.66
59487;BME280;45298;54.918;73.504;2023-01-30T11:50:57;101082.00;;;-11.58;74.78
59487;BME280;45298;54.918;73.504;2023-01-30T11:53:42;101046.94;;;-11.78;75.89
59487;BME280;45298;54.918;73.504;2023-01-30T11:56:21;101052.25;;;-11.74;75.87
59487;BME280;45298;54.918;73.504;2023-01-30T11:58:58;101058.56;;;-11.67;76.20
59487;BME280;45298;54.918;73.504;2023-01-30T12:01:34;101075.94;;;-11.60;74.91
59487;BME280;45298;54.918;73.504;2023-01-30T12:04:07;101100.81;;;-11.57;75.07
59487;BME280;45298;54.918;73.504;2023-01-30T12:06:40;101074.13;;;-11.62;74.84
59487;BME280;45298;54.918;73.504;2023-01-30T12:09:38;101046.00;;;-11.80;76.47
59487;BME280;45298;54.918;73.504;2023-01-30T12:12:43;101060.97;;;-11.70;75.15
59487;BME280;45298;54.918;73.504;2023-01-30T12:23:20;101024.44;;;-11.86;76.14
59487;BME280;45298;54.918;73.504;2023-01-30T12:25:57;101070.47;;;-11.67;75.40
59487;BME280;45298;54.918;73.504;2023-01-30T12:29:21;101051.25;;;-11.77;76.55
59487;BME280;45298;54.918;73.504;2023-01-30T12:31:45;101028.63;;;-11.88;75.62
59487;BME280;45298;54.918;73.504;2023-01-30T12:34:16;101011.09;;;-12.00;75.47
59487;BME280;45298;54.918;73.504;2023-01-30T12:39:29;101064.34;;;-11.71;75.80
59487;BME280;45298;54.918;73.504;2023-01-30T12:50:30;101033.06;;;-11.84;75.20
59487;BME280;45298;54.918;73.504;2023-01-30T13:01:28;100916.59;;;-12.54;75.55
59487;BME280;45298;54.918;73.504;2023-01-30T13:15:35;100975.19;;;-12.01;75.59
59487;BME280;45298;54.918;73.504;2023-01-30T13:18:14;101025.16;;;-11.70;76.02
59487;BME280;45298;54.918;73.504;2023-01-30T13:26:48;101013.00;;;-11.94;75.78
59487;BME280;45298;54.918;73.504;2023-01-30T13:31:58;100993.31;;;-12.16;75.66
59487;BME280;45298;54.918;73.504;2023-01-30T13:34:33;100965.19;;;-12.34;75.48
59487;BME280;45298;54.918;73.504;2023-01-30T13:37:09;101032.97;;;-12.06;76.50
59487;BME280;45298;54.918;73.504;2023-01-30T13:39:44;100991.56;;;-12.35;75.95
59487;BME280;45298;54.918;73.504;2023-01-30T13:42:29;100992.50;;;-12.33;75.43
59487;BME280;45298;54.918;73.504;2023-01-30T13:45:00;101030.63;;;-12.20;76.60
59487;BME280;45298;54.918;73.504;2023-01-30T13:53:07;100981.78;;;-12.62;75.95
59487;BME280;45298;54.918;73.504;2023-01-30T14:01:12;100993.56;;;-12.66;76.79
59487;BME280;45298;54.918;73.504;2023-01-30T14:03:41;101007.63;;;-12.74;76.35
59487;BME280;45298;54.918;73.504;2023-01-30T14:06:33;101024.97;;;-12.68;76.03
59487;BME280;45298;54.918;73.504;2023-01-30T14:09:17;100964.78;;;-13.16;76.08
59487;BME280;45298;54.918;73.504;2023-01-30T14:14:29;101006.09;;;-13.07;76.12
59487;BME280;45298;54.918;73.504;2023-01-30T14:17:13;101027.38;;;-13.06;75.48
59487;BME280;45298;54.918;73.504;2023-01-30T14:20:19;101037.38;;;-13.11;75.36
59487;BME280;45298;54.918;73.504;2023-01-30T14:22:51;101031.00;;;-13.19;75.26
59487;BME280;45298;54.918;73.504;2023-01-30T14:38:33;101039.44;;;-13.71;75.42
59487;BME280;45298;54.918;73.504;2023-01-30T15:04:48;101018.56;;;-14.14;75.32
59487;BME280;45298;54.918;73.504;2023-01-30T15:07:22;101019.97;;;-14.19;75.54
59487;BME280;45298;54.918;73.504;2023-01-30T15:12:33;101030.34;;;-14.16;75.02
59487;BME280;45298;54.918;73.504;2023-01-30T15:24:47;101019.41;;;-14.30;75.84
59487;BME280;45298;54.918;73.504;2023-01-30T15:30:19;101028.09;;;-14.41;74.55
59487;BME280;45298;54.918;73.504;2023-01-30T15:33:12;100999.19;;;-14.58;75.40
59487;BME280;45298;54.918;73.504;2023-01-30T15:35:49;100996.06;;;-14.69;74.85
59487;BME280;45298;54.918;73.504;2023-01-30T15:38:25;100996.69;;;-14.73;74.73
59487;BME280;45298;54.918;73.504;2023-01-30T15:41:00;100993.47;;;-14.85;74.75
59487;BME280;45298;54.918;73.504;2023-01-30T15:44:05;100982.94;;;-14.92;75.13
59487;BME280;45298;54.918;73.504;2023-01-30T15:50:02;100999.34;;;-14.71;74.77
59487;BME280;45298;54.918;73.504;2023-01-30T15:52:39;100904.69;;;-15.26;75.63